createdAt,value
2018-01-06T00:02:05.511Z,21.28
2018-01-06T00:04:31.476Z,21.36
2018-01-06T00:06:57.443Z,21.34
2018-01-06T00:09:23.421Z,21.37
2018-01-06T00:11:49.426Z,21.30
2018-01-06T00:39:29.756Z,21.30
2018-01-06T00:41:55.755Z,21.30
2018-01-06T00:44:21.741Z,21.31
2018-01-06T00:46:47.677Z,21.29
2018-01-06T00:49:13.653Z,21.26
2018-01-06T00:51:39.639Z,21.26
2018-01-06T00:54:05.591Z,21.15
2018-01-06T00:56:31.542Z,21.22
2018-01-06T00:58:57.517Z,21.27
2018-01-06T01:01:23.527Z,21.23
2018-01-06T01:03:49.498Z,21.18
2018-01-06T01:06:15.533Z,21.10
2018-01-06T01:08:41.526Z,21.13
2018-01-06T01:11:07.494Z,21.20
2018-01-06T01:13:33.542Z,21.19
2018-01-06T01:15:59.511Z,21.26
2018-01-06T01:18:25.504Z,21.29
2018-01-06T01:20:51.528Z,21.36
2018-01-06T01:23:17.542Z,21.30
2018-01-06T01:25:43.483Z,21.28
2018-01-06T01:28:09.494Z,21.26
2018-01-06T01:30:35.473Z,21.18
2018-01-06T01:33:01.435Z,21.19
2018-01-06T01:35:27.403Z,21.24
2018-01-06T01:37:53.373Z,21.20
2018-01-06T01:40:19.324Z,21.19
2018-01-06T01:42:45.297Z,21.14
2018-01-06T01:45:11.264Z,21.15
2018-01-06T01:47:37.221Z,21.13
2018-01-06T01:50:03.188Z,21.09
2018-01-06T01:52:29.185Z,21.07
2018-01-06T01:54:55.128Z,21.14
2018-01-06T01:57:21.082Z,21.11
2018-01-06T01:59:47.054Z,21.07
2018-01-06T02:02:13.063Z,21.15
2018-01-06T02:04:39.085Z,21.20
2018-01-06T02:07:05.108Z,21.20
2018-01-06T02:09:31.058Z,21.15
2018-01-06T02:11:57.001Z,21.24
2018-01-06T02:14:22.967Z,21.19
2018-01-06T02:16:48.926Z,21.09
2018-01-06T02:19:14.919Z,21.12
2018-01-06T02:21:40.917Z,21.10
2018-01-06T02:24:06.880Z,21.15
2018-01-06T02:26:32.875Z,21.09
2018-01-06T02:28:58.841Z,21.06
2018-01-06T02:31:24.812Z,21.01
2018-01-06T02:33:50.805Z,20.99
2018-01-06T02:36:16.782Z,20.98
2018-01-06T02:38:42.770Z,20.98
2018-01-06T02:41:08.723Z,20.97
2018-01-06T02:43:34.675Z,20.91
2018-01-06T02:46:00.642Z,20.99
2018-01-06T02:48:26.609Z,20.95
2018-01-06T02:50:52.591Z,21.06
2018-01-06T02:53:18.580Z,21.12
2018-01-06T02:55:44.529Z,21.09
2018-01-06T02:58:10.486Z,21.09
2018-01-06T03:00:36.445Z,21.05
2018-01-06T03:03:02.400Z,20.99
2018-01-06T03:05:28.432Z,21.13
2018-01-06T03:07:54.407Z,21.04
2018-01-06T03:10:20.363Z,20.90
2018-01-06T03:12:46.322Z,21.01
2018-01-06T03:15:12.316Z,20.99
2018-01-06T03:17:38.287Z,20.98
2018-01-06T03:20:04.253Z,20.88
2018-01-06T03:22:30.237Z,20.76
2018-01-06T03:24:56.194Z,20.85
2018-01-06T03:27:22.185Z,20.83
2018-01-06T03:29:48.131Z,20.74
2018-01-06T03:32:14.129Z,20.77
2018-01-06T03:34:40.093Z,20.82
2018-01-06T03:37:06.091Z,20.84
2018-01-06T03:39:32.051Z,20.95
2018-01-06T03:41:58.033Z,20.96
2018-01-06T03:46:55.312Z,21.07
2018-01-06T03:49:21.305Z,21.00
2018-01-06T03:51:47.277Z,21.01
2018-01-06T03:54:13.223Z,20.98
2018-01-06T03:56:39.182Z,21.00
2018-01-06T03:59:05.136Z,20.74
2018-01-06T04:01:31.146Z,20.85
2018-01-06T04:03:57.109Z,20.82
2018-01-06T04:06:23.092Z,20.78
2018-01-06T04:08:49.064Z,20.70
2018-01-06T04:11:15.043Z,20.68
2018-01-06T04:13:40.989Z,20.69
2018-01-06T04:16:06.947Z,20.65
2018-01-06T04:18:32.926Z,20.67
2018-01-06T04:20:58.916Z,20.66
2018-01-06T04:23:24.963Z,20.65
2018-01-06T04:25:50.913Z,20.74
2018-01-06T04:28:17.275Z,20.94
2018-01-06T04:30:43.250Z,21.01
2018-01-06T04:33:09.229Z,20.97
2018-01-06T04:35:35.177Z,20.92
2018-01-06T04:38:01.163Z,20.81
2018-01-06T04:40:27.158Z,20.86
2018-01-06T04:42:53.309Z,20.83
2018-01-06T04:45:19.287Z,20.81
2018-01-06T04:47:45.245Z,20.84
2018-01-06T04:50:11.208Z,20.76
2018-01-06T04:52:37.192Z,20.78
2018-01-06T04:55:03.174Z,20.67
2018-01-06T04:57:29.162Z,20.58
2018-01-06T04:59:55.106Z,20.58
2018-01-06T05:02:21.090Z,20.60
2018-01-06T05:04:47.060Z,20.62
2018-01-06T05:07:13.037Z,20.61
2018-01-06T05:09:38.994Z,20.55
2018-01-06T05:12:04.954Z,20.60
2018-01-06T05:14:30.966Z,20.63
2018-01-06T05:16:56.949Z,20.82
2018-01-06T05:19:22.895Z,20.91
2018-01-06T05:21:48.859Z,20.87
2018-01-06T05:24:14.818Z,20.85
2018-01-06T05:26:40.800Z,20.79
2018-01-06T05:29:06.778Z,20.74
2018-01-06T05:31:32.770Z,20.74
2018-01-06T05:33:58.737Z,20.75
2018-01-06T05:36:24.723Z,20.76
2018-01-06T05:38:50.724Z,20.73
2018-01-06T05:41:16.706Z,20.63
2018-01-06T05:43:43.770Z,20.59
2018-01-06T05:46:09.727Z,20.52
2018-01-06T05:48:35.786Z,20.57
2018-01-06T05:51:01.751Z,20.53
2018-01-06T05:53:27.717Z,20.56
2018-01-06T05:55:53.662Z,20.50
2018-01-06T05:58:19.630Z,20.55
2018-01-06T06:00:45.617Z,20.52
2018-01-06T06:03:11.587Z,20.59
2018-01-06T06:05:37.585Z,20.71
2018-01-06T06:08:03.553Z,20.86
2018-01-06T06:10:29.531Z,20.83
2018-01-06T06:12:55.481Z,20.77
2018-01-06T06:15:21.436Z,20.74
2018-01-06T06:17:47.451Z,20.73
2018-01-06T06:20:13.424Z,20.65
2018-01-06T06:22:39.417Z,20.67
2018-01-06T06:25:05.653Z,20.81
2018-01-06T06:27:32.006Z,20.88
2018-01-06T06:29:57.998Z,20.94
2018-01-06T06:32:23.977Z,20.92
2018-01-06T06:34:49.962Z,21.03
2018-01-06T06:37:15.940Z,21.01
2018-01-06T06:39:41.926Z,21.05
2018-01-06T06:42:07.894Z,21.11
2018-01-06T06:44:33.850Z,21.10
2018-01-06T06:46:59.811Z,21.20
2018-01-06T06:49:25.779Z,21.18
2018-01-06T06:51:51.766Z,21.22
2018-01-06T06:54:17.750Z,21.29
2018-01-06T06:56:43.720Z,21.36
2018-01-06T06:59:09.699Z,21.37
2018-01-06T07:01:35.685Z,21.48
2018-01-06T07:04:01.662Z,21.39
2018-01-06T07:06:27.651Z,21.44
2018-01-06T07:08:53.607Z,21.40
2018-01-06T07:11:19.613Z,21.39
2018-01-06T07:13:45.601Z,21.39
2018-01-06T07:16:11.665Z,21.39
2018-01-06T07:18:37.614Z,21.38
2018-01-06T07:21:03.576Z,21.35
2018-01-06T07:23:29.557Z,21.40
2018-01-06T07:25:55.526Z,21.37
2018-01-06T07:28:21.511Z,21.30
2018-01-06T07:30:47.490Z,21.27
2018-01-06T07:33:13.440Z,21.30
2018-01-06T07:35:39.413Z,21.34
2018-01-06T07:38:05.682Z,21.41
2018-01-06T07:40:31.951Z,21.39
2018-01-06T07:42:57.937Z,21.31
2018-01-06T07:45:24.025Z,21.45
2018-01-06T07:47:50.283Z,21.41
2018-01-06T07:50:16.468Z,21.40
2018-01-06T07:52:43.394Z,21.36
2018-01-06T07:55:09.566Z,21.41
2018-01-06T07:57:35.659Z,21.40
2018-01-06T08:00:01.728Z,21.52
2018-01-06T08:02:27.890Z,21.40
2018-01-06T08:04:53.902Z,21.43
2018-01-06T08:07:26.404Z,21.40
2018-01-06T08:09:55.508Z,21.45
2018-01-06T08:12:21.619Z,21.47
2018-01-06T08:14:47.608Z,21.44
2018-01-06T08:17:13.626Z,21.44
2018-01-06T08:19:39.602Z,21.45
2018-01-06T08:22:05.615Z,21.42
2018-01-06T08:24:31.958Z,21.49
2018-01-06T08:26:57.944Z,21.40
2018-01-06T08:29:24.476Z,21.41
2018-01-06T08:31:50.470Z,21.49
2018-01-06T08:34:16.423Z,21.53
2018-01-06T08:36:42.401Z,21.59
2018-01-06T08:39:08.371Z,21.48
2018-01-06T08:41:34.336Z,21.51
2018-01-06T08:44:04.350Z,21.55
2018-01-06T08:46:30.344Z,21.46
2018-01-06T08:48:56.321Z,21.48
2018-01-06T08:51:22.299Z,21.42
2018-01-06T08:53:48.285Z,21.41
2018-01-06T08:56:14.318Z,21.49
2018-01-06T08:58:40.304Z,21.49
2018-01-06T09:01:06.254Z,21.49
2018-01-06T09:06:04.664Z,21.45
2018-01-06T09:08:30.630Z,21.56
2018-01-06T09:10:56.625Z,21.06
2018-01-06T09:13:22.586Z,20.83
2018-01-06T09:15:48.567Z,20.73
2018-01-06T09:18:14.530Z,21.09
2018-01-06T09:20:40.506Z,21.25
2018-01-06T09:23:06.486Z,21.29
2018-01-06T09:25:32.483Z,21.53
2018-01-06T09:27:58.462Z,21.33
2018-01-06T09:30:24.458Z,21.31
2018-01-06T09:32:50.443Z,21.43
2018-01-06T09:35:16.401Z,21.42
2018-01-06T09:37:42.369Z,21.45
2018-01-06T09:40:08.344Z,21.47
2018-01-06T09:42:34.330Z,21.26
2018-01-06T09:45:00.317Z,21.19
2018-01-06T09:47:26.300Z,21.01
2018-01-06T09:49:52.310Z,20.90
2018-01-06T09:52:18.257Z,20.89
2018-01-06T09:54:44.251Z,20.84
2018-01-06T09:57:10.250Z,21.17
2018-01-06T09:59:36.195Z,21.16
2018-01-06T10:02:03.236Z,21.23
2018-01-06T10:04:29.183Z,21.26
2018-01-06T10:06:55.299Z,21.24
2018-01-06T10:09:21.282Z,21.30
2018-01-06T10:11:47.259Z,21.38
2018-01-06T10:14:13.238Z,21.37
2018-01-06T10:16:39.233Z,21.34
2018-01-06T10:19:05.193Z,21.49
2018-01-06T10:21:31.174Z,21.52
2018-01-06T10:23:57.144Z,21.45
2018-01-06T10:26:23.131Z,21.45
2018-01-06T10:28:49.121Z,21.41
2018-01-06T10:31:15.096Z,21.42
2018-01-06T10:33:41.091Z,21.41
2018-01-06T10:36:07.068Z,21.38
2018-01-06T10:38:33.033Z,21.38
2018-01-06T10:40:59.048Z,21.41
2018-01-06T10:43:25.015Z,21.39
2018-01-06T10:45:50.984Z,21.40
2018-01-06T10:48:16.960Z,21.48
2018-01-06T10:50:42.949Z,21.57
2018-01-06T10:53:08.961Z,21.60
2018-01-06T10:55:34.917Z,21.53
2018-01-06T10:58:00.911Z,21.49
2018-01-06T11:00:32.229Z,21.66
2018-01-06T11:03:00.307Z,21.64
2018-01-06T11:07:58.502Z,21.40
2018-01-06T11:10:24.531Z,21.56
2018-01-06T11:12:50.517Z,21.52
2018-01-06T11:15:16.548Z,21.48
2018-01-06T11:17:42.522Z,21.43
2018-01-06T11:20:08.525Z,21.50
2018-01-06T11:32:41.214Z,21.48
2018-01-06T11:35:07.262Z,21.51
2018-01-06T11:37:33.239Z,21.46
2018-01-06T11:39:59.239Z,21.51
2018-01-06T11:42:25.242Z,21.46
2018-01-06T11:44:51.226Z,21.61
2018-01-06T11:47:17.229Z,21.60
2018-01-06T11:49:43.199Z,21.67
2018-01-06T11:52:09.195Z,21.62
2018-01-06T11:54:35.158Z,21.63
2018-01-06T11:57:01.159Z,21.60
2018-01-06T11:59:27.136Z,21.61
2018-01-06T12:01:53.115Z,21.58
2018-01-06T12:04:19.098Z,21.56
2018-01-06T12:09:22.490Z,21.61
2018-01-06T12:11:48.469Z,21.58
2018-01-06T12:14:14.457Z,21.55
2018-01-06T12:16:42.543Z,21.58
2018-01-06T12:19:08.519Z,21.54
2018-01-06T12:21:34.582Z,21.53
2018-01-06T12:24:00.612Z,21.64
2018-01-06T12:26:26.635Z,21.62
2018-01-06T12:28:52.612Z,21.59
2018-01-06T12:31:19.632Z,21.58
2018-01-06T12:33:45.582Z,21.56
2018-01-06T12:36:11.680Z,21.65
2018-01-06T12:38:37.643Z,21.67
2018-01-06T12:41:03.632Z,21.73
2018-01-06T12:43:29.602Z,21.68
2018-01-06T12:45:58.039Z,21.65
2018-01-06T12:48:24.019Z,21.60
2018-01-06T12:50:50.034Z,21.53
2018-01-06T12:53:16.445Z,21.52
2018-01-06T12:55:42.436Z,21.24
2018-01-06T12:58:08.424Z,20.89
2018-01-06T13:00:34.936Z,21.26
2018-01-06T13:03:02.842Z,21.36
2018-01-06T13:05:31.723Z,21.29
2018-01-06T13:07:57.808Z,21.36
2018-01-06T13:10:24.931Z,21.41
2018-01-06T13:12:51.232Z,21.44
2018-01-06T13:15:17.211Z,21.53
2018-01-06T13:17:43.229Z,21.50
2018-01-06T13:20:09.218Z,21.48
2018-01-06T13:22:35.206Z,21.62
2018-01-06T13:25:04.229Z,21.66
2018-01-06T13:27:32.469Z,21.71
2018-01-06T13:29:58.948Z,21.69
2018-01-06T13:32:25.004Z,21.63
2018-01-06T13:34:51.041Z,21.66
2018-01-06T13:37:17.027Z,21.63
2018-01-06T13:39:43.030Z,21.54
2018-01-06T13:42:09.001Z,21.54
2018-01-06T13:44:34.990Z,21.52
2018-01-06T13:47:01.058Z,21.51
2018-01-06T13:49:27.016Z,21.47
2018-01-06T13:51:53.022Z,21.60
2018-01-06T13:56:51.509Z,21.52
2018-01-06T13:59:17.506Z,21.47
2018-01-06T14:01:43.647Z,21.58
2018-01-06T14:04:09.788Z,21.56
2018-01-06T14:06:35.754Z,21.42
2018-01-06T14:09:01.768Z,21.36
2018-01-06T14:11:27.741Z,21.53
2018-01-06T14:13:53.717Z,21.64
2018-01-06T14:16:19.664Z,21.72
2018-01-06T14:18:45.650Z,21.66
2018-01-06T14:21:11.615Z,21.65
2018-01-06T14:23:37.590Z,21.63
2018-01-06T14:26:03.629Z,21.67
2018-01-06T14:28:29.614Z,21.52
2018-01-06T14:30:55.593Z,21.55
2018-01-06T14:33:21.588Z,21.41
2018-01-06T14:35:47.609Z,21.44
2018-01-06T14:38:13.566Z,21.48
2018-01-06T14:40:39.527Z,21.29
2018-01-06T14:43:05.514Z,21.24
2018-01-06T14:45:31.506Z,21.34
2018-01-06T14:47:57.479Z,21.36
2018-01-06T14:50:23.506Z,21.46
2018-01-06T14:52:49.585Z,21.47
2018-01-06T14:55:15.600Z,21.53
2018-01-06T14:57:41.603Z,21.50
2018-01-06T15:00:08.594Z,21.58
2018-01-06T15:02:34.578Z,21.51
2018-01-06T15:05:00.547Z,21.67
2018-01-06T15:07:26.570Z,21.33
2018-01-06T15:09:52.562Z,21.23
2018-01-06T15:12:18.545Z,21.43
2018-01-06T15:14:44.514Z,21.55
2018-01-06T15:22:13.911Z,21.29
2018-01-06T15:24:39.880Z,21.34
2018-01-06T15:27:05.955Z,21.45
2018-01-06T15:29:31.927Z,21.47
2018-01-06T15:31:57.887Z,21.41
2018-01-06T15:34:23.875Z,21.49
2018-01-06T15:36:49.852Z,21.46
2018-01-06T15:41:50.411Z,21.53
2018-01-06T15:44:16.431Z,21.49
2018-01-06T15:46:42.418Z,21.56
2018-01-06T15:49:08.411Z,21.60
2018-01-06T15:51:34.476Z,21.72
2018-01-06T15:54:00.467Z,21.78
2018-01-06T15:56:26.427Z,21.78
2018-01-06T15:58:52.420Z,21.68
2018-01-06T16:01:18.465Z,21.73
2018-01-06T16:03:44.415Z,21.65
2018-01-06T16:06:10.383Z,21.68
2018-01-06T16:08:36.336Z,21.64
2018-01-06T16:11:02.306Z,21.65
2018-01-06T16:13:28.394Z,21.65
2018-01-06T16:15:54.415Z,21.41
2018-01-06T16:18:20.460Z,21.56
2018-01-06T16:20:46.461Z,21.55
2018-01-06T16:23:12.510Z,21.55
2018-01-06T16:25:38.517Z,21.60
2018-01-06T16:28:04.520Z,21.55
2018-01-06T16:30:30.500Z,21.61
2018-01-06T16:32:56.516Z,21.56
2018-01-06T16:35:22.535Z,21.66
2018-01-06T16:37:48.534Z,21.68
2018-01-06T16:40:14.485Z,21.68
2018-01-06T16:42:40.486Z,21.75
2018-01-06T16:45:06.472Z,21.68
2018-01-06T16:47:32.452Z,21.74
2018-01-06T16:49:58.455Z,21.70
2018-01-06T16:52:24.438Z,21.67
2018-01-06T16:54:50.423Z,21.62
2018-01-06T16:57:16.373Z,21.62
2018-01-06T16:59:42.359Z,21.58
2018-01-06T17:02:08.332Z,21.58
2018-01-06T17:04:34.347Z,21.58
2018-01-06T17:07:00.330Z,21.60
2018-01-06T17:09:26.289Z,21.59
2018-01-06T17:11:52.258Z,21.55
2018-01-06T17:14:18.263Z,21.64
2018-01-06T17:16:44.280Z,21.65
2018-01-06T17:19:10.321Z,21.57
2018-01-06T17:21:36.317Z,21.58
2018-01-06T17:24:02.274Z,21.66
2018-01-06T17:26:28.231Z,21.60
2018-01-06T17:28:54.248Z,21.53
2018-01-06T17:31:20.247Z,21.36
2018-01-06T17:33:46.268Z,21.27
2018-01-06T17:36:12.258Z,21.55
2018-01-06T17:38:38.412Z,21.62
2018-01-06T17:41:04.422Z,21.56
2018-01-06T17:43:30.416Z,21.49
2018-01-06T17:45:56.430Z,21.54
2018-01-06T17:48:23.112Z,21.59
2018-01-06T17:50:49.200Z,21.59
2018-01-06T17:53:15.113Z,21.62
2018-01-06T17:55:41.067Z,21.56
2018-01-06T17:58:07.043Z,21.61
2018-01-06T18:00:32.999Z,21.58
2018-01-06T18:02:58.997Z,21.64
2018-01-06T18:05:24.996Z,21.58
2018-01-06T18:07:51.047Z,21.65
2018-01-06T18:10:17.310Z,21.59
2018-01-06T18:12:43.294Z,21.62
2018-01-06T18:15:09.259Z,21.66
2018-01-06T18:17:35.230Z,21.76
2018-01-06T18:20:01.154Z,21.69
2018-01-06T18:22:27.124Z,21.69
2018-01-06T18:24:53.094Z,21.62
2018-01-06T18:27:19.174Z,21.65
2018-01-06T18:29:45.142Z,21.62
2018-01-06T18:32:11.187Z,21.57
2018-01-06T18:34:37.162Z,21.56
2018-01-06T18:37:03.165Z,21.54
2018-01-06T18:39:29.151Z,21.54
2018-01-06T18:41:55.165Z,21.60
2018-01-06T18:44:21.201Z,21.53
2018-01-06T18:46:47.222Z,21.69
2018-01-06T18:49:13.182Z,21.65
2018-01-06T18:51:40.248Z,21.71
2018-01-06T18:54:06.359Z,21.65
2018-01-06T18:59:03.551Z,21.64
2018-01-06T19:01:29.534Z,21.71
2018-01-06T19:03:55.527Z,21.70
2018-01-06T19:06:25.488Z,21.78
2018-01-06T19:08:53.197Z,21.75
2018-01-06T19:11:21.579Z,21.74
2018-01-06T19:13:47.598Z,21.70
2018-01-06T19:16:13.608Z,21.76
2018-01-06T19:18:39.563Z,21.61
2018-01-06T19:21:05.554Z,21.59
2018-01-06T19:23:31.563Z,21.62
2018-01-06T19:25:58.011Z,21.64
2018-01-06T19:28:24.072Z,21.64
2018-01-06T19:30:50.039Z,21.61
2018-01-06T19:33:16.016Z,21.55
2018-01-06T19:35:42.018Z,21.57
2018-01-06T19:38:07.991Z,21.63
2018-01-06T19:40:33.967Z,21.67
2018-01-06T19:43:00.002Z,21.56
2018-01-06T19:45:25.976Z,21.63
2018-01-06T19:47:51.988Z,21.62
2018-01-06T19:50:17.956Z,21.66
2018-01-06T19:52:43.920Z,21.74
2018-01-06T19:55:10.311Z,21.74
2018-01-06T19:57:36.313Z,21.78
2018-01-06T20:00:02.300Z,21.84
2018-01-06T20:02:28.326Z,21.74
2018-01-06T20:04:54.315Z,21.70
2018-01-06T20:07:20.430Z,21.66
2018-01-06T20:09:46.420Z,21.75
2018-01-06T20:12:12.442Z,21.55
2018-01-06T20:14:38.425Z,21.64
2018-01-06T20:17:04.399Z,21.57
2018-01-06T20:19:30.393Z,21.55
2018-01-06T20:21:56.360Z,21.61
2018-01-06T20:24:22.353Z,21.57
2018-01-06T20:26:48.344Z,21.71
2018-01-06T20:29:15.057Z,21.65
2018-01-06T20:31:41.056Z,21.68
2018-01-06T20:34:14.399Z,21.60
2018-01-06T20:36:40.616Z,21.65
2018-01-06T20:39:06.598Z,21.63
2018-01-06T20:41:32.644Z,21.73
2018-01-06T20:43:59.071Z,21.70
2018-01-06T20:46:25.350Z,21.70
2018-01-06T20:48:51.529Z,21.72
2018-01-06T20:51:17.756Z,21.76
2018-01-06T20:53:45.024Z,21.72
2018-01-06T20:56:11.146Z,21.63
2018-01-06T20:58:37.454Z,21.62
2018-01-06T21:01:03.450Z,21.67
2018-01-06T21:03:29.573Z,21.66
2018-01-06T21:05:55.579Z,21.60
2018-01-06T21:08:21.731Z,21.67
2018-01-06T21:10:47.751Z,21.66
2018-01-06T21:13:13.764Z,21.62
2018-01-06T21:15:39.787Z,21.73
2018-01-06T21:18:05.806Z,21.64
2018-01-06T21:20:31.952Z,21.65
2018-01-06T21:22:58.199Z,21.62
2018-01-06T21:25:24.652Z,21.66
2018-01-06T21:27:51.146Z,21.72
2018-01-06T21:30:17.374Z,21.67
2018-01-06T21:32:44.566Z,21.68
2018-01-06T21:35:10.820Z,21.75
2018-01-06T21:37:37.990Z,21.68
2018-01-06T21:40:04.034Z,21.69
2018-01-06T21:42:30.045Z,21.65
2018-01-06T21:44:56.317Z,21.62
2018-01-06T21:47:22.658Z,21.59
2018-01-06T21:49:49.723Z,21.59
2018-01-06T21:52:15.879Z,21.64
2018-01-06T21:54:44.197Z,21.66
2018-01-06T21:57:10.512Z,21.66
2018-01-06T21:59:37.395Z,21.68
2018-01-06T22:02:03.391Z,21.67
2018-01-06T22:04:29.493Z,21.67
2018-01-06T22:06:55.901Z,21.68
2018-01-06T22:09:23.746Z,21.62
2018-01-06T22:11:50.387Z,21.60
2018-01-06T22:14:17.613Z,21.70
2018-01-06T22:16:43.743Z,21.71
2018-01-06T22:19:10.023Z,21.69
2018-01-06T22:21:36.126Z,21.76
2018-01-06T22:24:02.742Z,21.71
2018-01-06T22:26:29.025Z,21.72
2018-01-06T22:28:55.317Z,21.71
2018-01-06T22:31:22.226Z,21.68
2018-01-06T22:33:49.122Z,21.64
2018-01-06T22:36:15.302Z,21.57
2018-01-06T22:38:41.635Z,21.59
2018-01-06T22:41:07.919Z,21.56
2018-01-06T22:43:35.833Z,21.61
2018-01-06T22:46:01.895Z,21.61
2018-01-06T22:48:28.206Z,21.64
2018-01-06T22:50:54.293Z,21.60
2018-01-06T22:53:20.422Z,21.65
2018-01-06T22:55:46.387Z,21.68
2018-01-06T22:58:12.462Z,21.73
2018-01-06T23:00:38.461Z,21.62
2018-01-06T23:03:04.451Z,21.72
2018-01-06T23:05:30.445Z,21.70
2018-01-06T23:07:56.439Z,21.81
2018-01-06T23:10:22.417Z,21.78
2018-01-06T23:12:48.401Z,21.75
2018-01-06T23:15:14.358Z,21.72
2018-01-06T23:17:40.321Z,21.69
2018-01-06T23:20:06.270Z,21.65
2018-01-06T23:22:32.235Z,21.61
2018-01-06T23:24:58.225Z,21.60
2018-01-06T23:27:24.198Z,21.60
2018-01-06T23:29:50.170Z,21.57
2018-01-06T23:32:16.163Z,21.53
2018-01-06T23:34:42.165Z,21.57
2018-01-06T23:37:08.149Z,21.55
2018-01-06T23:39:34.131Z,21.34
2018-01-06T23:42:00.122Z,21.54
2018-01-06T23:44:26.187Z,21.51
2018-01-06T23:46:52.250Z,21.50
2018-01-06T23:49:18.246Z,21.46
2018-01-06T23:51:44.248Z,21.52
2018-01-06T23:54:10.231Z,21.57
2018-01-06T23:56:36.223Z,21.51
2018-01-06T23:59:02.212Z,21.56
